Time;durP1;ratioP1;P1;durP2;ratioP2;P2;SDS_P1;SDS_P2;PMS_P1;PMS_P2;Temp;Humidity;BMP_temperature;BMP_pressure;BME280_temperature;BME280_humidity;BME280_pressure;Samples;Min_cycle;Max_cycle;Signal;HPM_P1;HPM_P2
2023/07/08 00:00:28;;;;;;;4.27;2.63;;;20.60;93.30;;;;;;5036431;28;20160;-69
2023/07/08 00:02:53;;;;;;;3.70;2.87;;;20.60;94.30;;;;;;5036601;28;20445;-69
2023/07/08 00:05:22;;;;;;;2.63;2.40;;;20.50;95.90;;;;;;5036193;28;20168;-67
2023/07/08 00:07:48;;;;;;;3.67;2.70;;;20.40;97.00;;;;;;5034176;28;20551;-67
2023/07/08 00:10:26;;;;;;;4.27;2.97;;;20.40;98.60;;;;;;5035602;28;20466;-69
2023/07/08 00:12:56;;;;;;;3.80;2.97;;;20.30;99.00;;;;;;5035827;28;20286;-67
2023/07/08 00:15:26;;;;;;;4.00;2.37;;;20.20;99.20;;;;;;5035646;28;20460;-68
2023/07/08 00:17:51;;;;;;;3.40;3.10;;;20.20;99.40;;;;;;5034833;28;20434;-67
2023/07/08 00:20:38;;;;;;;3.43;2.80;;;20.20;99.50;;;;;;5036349;28;20398;-68
2023/07/08 00:23:03;;;;;;;4.70;3.27;;;20.20;98.50;;;;;;5035534;28;20171;-67
2023/07/08 00:25:30;;;;;;;5.80;3.50;;;20.10;98.80;;;;;;5034986;28;20539;-68
2023/07/08 00:27:56;;;;;;;5.90;3.90;;;20.10;99.90;;;;;;5035101;28;20191;-68
2023/07/08 00:30:29;;;;;;;5.00;3.97;;;20.10;99.90;;;;;;5035501;28;20452;-67
2023/07/08 00:32:56;;;;;;;4.00;3.57;;;20.10;99.50;;;;;;5035421;28;20310;-68
2023/07/08 00:35:37;;;;;;;5.93;4.20;;;20.10;98.40;;;;;;5034861;28;20398;-67
2023/07/08 00:38:12;;;;;;;4.50;4.10;;;20.20;97.40;;;;;;5035016;28;20505;-67
2023/07/08 00:40:38;;;;;;;4.10;3.67;;;20.10;96.40;;;;;;5035202;28;20823;-68
2023/07/08 00:43:08;;;;;;;4.10;3.70;;;20.10;95.80;;;;;;5035213;28;20405;-67
2023/07/08 00:45:45;;;;;;;4.50;3.10;;;20.10;95.50;;;;;;5034853;28;20461;-68
2023/07/08 00:48:27;;;;;;;4.17;3.70;;;20.10;95.20;;;;;;5035074;28;20426;-68
2023/07/08 00:50:53;;;;;;;5.17;4.07;;;20.10;94.80;;;;;;5034890;28;20402;-68
2023/07/08 00:53:33;;;;;;;5.60;3.77;;;20.10;94.50;;;;;;5034628;28;20849;-68
2023/07/08 00:56:00;;;;;;;4.13;3.50;;;20.00;94.20;;;;;;5034686;28;20163;-68
2023/07/08 00:58:37;;;;;;;3.63;3.20;;;20.00;93.80;;;;;;5035801;28;20501;-67
2023/07/08 01:01:06;;;;;;;5.03;3.90;;;20.00;94.00;;;;;;5035003;28;20401;-67
2023/07/08 01:03:34;;;;;;;8.13;3.53;;;20.00;94.10;;;;;;5034866;28;20418;-68
2023/07/08 01:06:00;;;;;;;4.00;3.70;;;20.00;94.60;;;;;;5034600;28;20414;-68
2023/07/08 01:08:28;;;;;;;5.13;3.57;;;20.00;95.60;;;;;;5033006;28;20541;-68
2023/07/08 01:11:01;;;;;;;5.20;3.70;;;20.00;96.80;;;;;;5033263;28;20258;-67
2023/07/08 01:13:30;;;;;;;6.33;4.50;;;20.00;97.80;;;;;;5034633;28;20457;-68
2023/07/08 01:15:57;;;;;;;4.97;3.87;;;20.00;97.70;;;;;;5034678;28;20999;-68
2023/07/08 01:18:24;;;;;;;4.20;2.70;;;20.00;97.80;;;;;;5034958;28;20418;-69
2023/07/08 01:20:50;;;;;;;3.80;3.17;;;20.00;97.70;;;;;;5034489;28;20395;-68
2023/07/08 01:23:17;;;;;;;4.97;3.80;;;20.00;97.60;;;;;;5034987;28;20410;-68
2023/07/08 01:25:44;;;;;;;4.20;3.33;;;20.00;97.50;;;;;;5035123;28;20163;-67
2023/07/08 01:28:10;;;;;;;5.20;3.70;;;20.00;97.40;;;;;;5034738;28;20509;-68
2023/07/08 01:30:36;;;;;;;4.67;4.20;;;20.00;97.40;;;;;;5034937;28;20442;-68
2023/07/08 01:33:07;;;;;;;4.30;3.50;;;20.00;97.30;;;;;;5034831;28;20192;-68
2023/07/08 01:35:32;;;;;;;5.17;3.50;;;20.00;97.80;;;;;;5034536;28;20399;-68
2023/07/08 01:38:01;;;;;;;6.30;4.33;;;20.00;98.20;;;;;;5033680;28;20495;-68
2023/07/08 01:40:34;;;;;;;6.30;4.10;;;20.00;97.90;;;;;;5034473;28;20511;-68
2023/07/08 01:43:00;;;;;;;4.40;3.17;;;20.00;97.70;;;;;;5034936;28;20495;-67
2023/07/08 01:45:31;;;;;;;5.93;3.87;;;20.00;97.60;;;;;;5034695;28;20410;-68
2023/07/08 01:48:00;;;;;;;6.57;4.10;;;20.00;97.50;;;;;;5036755;28;20418;-67
2023/07/08 01:50:27;;;;;;;5.30;3.63;;;20.00;97.50;;;;;;5038055;28;20421;-68
2023/07/08 01:52:54;;;;;;;4.10;3.67;;;20.00;97.60;;;;;;5038417;28;20821;-68
2023/07/08 01:55:23;;;;;;;6.27;4.00;;;20.00;98.20;;;;;;5037690;28;20413;-69
2023/07/08 01:57:51;;;;;;;5.10;4.60;;;20.00;98.70;;;;;;5038063;28;20991;-67
2023/07/08 02:00:16;;;;;;;3.70;3.40;;;19.90;98.80;;;;;;5038230;28;20406;-68
2023/07/08 02:02:42;;;;;;;4.33;3.70;;;19.90;99.70;;;;;;5038119;28;20957;-68
2023/07/08 02:05:08;;;;;;;4.77;3.70;;;19.90;99.90;;;;;;5037516;28;20175;-67
2023/07/08 02:07:33;;;;;;;4.07;3.67;;;19.90;99.90;;;;;;5037514;28;20199;-68
2023/07/08 02:09:59;;;;;;;5.83;3.70;;;19.80;99.90;;;;;;5037441;28;20171;-67
2023/07/08 02:12:24;;;;;;;3.93;3.17;;;19.70;99.90;;;;;;5037470;28;20202;-68
2023/07/08 02:14:50;;;;;;;4.40;3.90;;;19.70;99.90;;;;;;5037052;28;20191;-67
2023/07/08 02:17:16;;;;;;;5.87;4.20;;;19.60;99.90;;;;;;5036530;28;20302;-68
2023/07/08 02:19:43;;;;;;;5.10;3.67;;;19.60;99.90;;;;;;5036468;28;20999;-67
2023/07/08 02:22:08;;;;;;;9.03;3.63;;;19.50;99.90;;;;;;5036141;28;20172;-67
2023/07/08 02:24:34;;;;;;;6.80;3.90;;;19.40;99.90;;;;;;5036347;28;20406;-67
2023/07/08 02:26:59;;;;;;;4.93;3.73;;;19.40;99.90;;;;;;5035452;28;20574;-68
2023/07/08 02:29:26;;;;;;;12.70;8.43;;;19.40;99.90;;;;;;5035594;28;20251;-68
2023/07/08 02:31:51;;;;;;;12.00;8.53;;;19.30;99.90;;;;;;5034984;28;20282;-69
2023/07/08 02:34:17;;;;;;;8.87;6.17;;;19.30;99.90;;;;;;5035817;28;20441;-69
2023/07/08 02:36:43;;;;;;;5.40;4.50;;;19.20;99.90;;;;;;5038318;28;20197;-68
2023/07/08 02:39:09;;;;;;;4.53;4.03;;;19.20;99.90;;;;;;5038062;28;20164;-68
2023/07/08 02:41:35;;;;;;;6.50;4.40;;;19.20;99.90;;;;;;5038035;28;20410;-68
2023/07/08 02:44:01;;;;;;;4.60;3.83;;;19.10;99.90;;;;;;5037793;28;20409;-68
2023/07/08 02:46:26;;;;;;;5.50;4.70;;;19.00;99.90;;;;;;5037596;28;20167;-67
2023/07/08 02:48:52;;;;;;;8.47;5.87;;;18.90;99.90;;;;;;5037817;28;20183;-68
2023/07/08 02:51:17;;;;;;;6.27;5.60;;;18.90;99.90;;;;;;5038324;28;20176;-67
2023/07/08 02:53:43;;;;;;;9.10;5.07;;;18.80;99.90;;;;;;5037985;28;20192;-67
2023/07/08 02:56:09;;;;;;;7.10;5.17;;;18.80;99.90;;;;;;5037496;28;20160;-67
2023/07/08 02:58:35;;;;;;;7.33;5.20;;;18.70;99.90;;;;;;5036942;28;20476;-68
2023/07/08 03:01:00;;;;;;;7.10;4.53;;;18.60;99.90;;;;;;5037413;28;20179;-67
2023/07/08 03:03:30;;;;;;;8.60;4.90;;;18.60;99.90;;;;;;5037153;28;20402;-68
2023/07/08 03:06:02;;;;;;;10.87;6.90;;;18.60;99.90;;;;;;5036878;28;20164;-66
2023/07/08 03:08:28;;;;;;;7.70;6.53;;;18.60;99.90;;;;;;5036449;28;20450;-67
2023/07/08 03:10:57;;;;;;;7.90;5.70;;;18.60;99.90;;;;;;5037137;28;20410;-68
2023/07/08 03:13:23;;;;;;;4.87;3.90;;;18.60;99.90;;;;;;5041945;28;21006;-67
2023/07/08 03:15:50;;;;;;;4.80;4.00;;;18.60;99.90;;;;;;5041291;28;20398;-67
2023/07/08 03:18:15;;;;;;;8.53;4.90;;;18.60;99.90;;;;;;5038793;28;20434;-67
2023/07/08 03:20:44;;;;;;;3.93;3.40;;;18.60;99.90;;;;;;5037742;28;20419;-66
2023/07/08 03:23:11;;;;;;;4.60;3.70;;;18.60;99.90;;;;;;5038227;28;20252;-67
2023/07/08 03:25:37;;;;;;;6.43;4.00;;;18.60;99.90;;;;;;5038546;28;20410;-68
2023/07/08 03:28:07;;;;;;;4.37;3.57;;;18.70;99.90;;;;;;5037980;28;20430;-67
2023/07/08 03:30:33;;;;;;;4.57;3.93;;;18.70;99.90;;;;;;5038766;28;20414;-67
2023/07/08 03:33:00;;;;;;;5.27;3.73;;;18.80;99.90;;;;;;5037696;28;20974;-67
2023/07/08 03:35:26;;;;;;;6.40;4.13;;;18.80;99.90;;;;;;5037218;28;20765;-67
2023/07/08 03:37:52;;;;;;;4.57;3.77;;;18.80;99.90;;;;;;5037354;28;20798;-67
2023/07/08 03:40:17;;;;;;;23.67;5.10;;;18.80;99.90;;;;;;5037353;28;20910;-67
2023/07/08 03:42:43;;;;;;;5.03;3.50;;;18.80;99.90;;;;;;5035859;28;20446;-68
2023/07/08 03:45:09;;;;;;;6.33;4.00;;;18.80;99.90;;;;;;5033001;28;20175;-69
2023/07/08 03:47:35;;;;;;;5.37;4.17;;;18.80;99.90;;;;;;5033184;28;20209;-67
2023/07/08 03:50:00;;;;;;;5.53;3.87;;;18.80;99.90;;;;;;5033176;28;20892;-69
2023/07/08 03:52:26;;;;;;;4.93;4.10;;;18.80;99.90;;;;;;5033073;28;20203;-69
2023/07/08 03:54:52;;;;;;;5.47;4.63;;;18.80;99.90;;;;;;5032717;28;20245;-69
2023/07/08 03:57:17;;;;;;;10.23;6.07;;;18.90;99.90;;;;;;5032741;28;20834;-68
2023/07/08 03:59:43;;;;;;;5.37;4.17;;;18.90;99.90;;;;;;5032985;28;20179;-69
2023/07/08 04:02:11;;;;;;;5.93;3.80;;;18.90;99.90;;;;;;5032850;28;20168;-69
2023/07/08 04:04:37;;;;;;;5.33;4.17;;;18.90;99.90;;;;;;5032922;28;20169;-68
2023/07/08 04:07:03;;;;;;;6.40;4.43;;;18.90;99.90;;;;;;5032855;28;20552;-67
2023/07/08 04:09:29;;;;;;;4.67;4.17;;;19.00;99.90;;;;;;5033329;28;20954;-67
2023/07/08 04:11:55;;;;;;;6.30;4.37;;;19.00;99.90;;;;;;5036001;28;20512;-67
2023/07/08 04:14:21;;;;;;;7.10;4.77;;;19.00;99.90;;;;;;5036223;28;20252;-68
2023/07/08 04:16:54;;;;;;;5.07;4.20;;;19.00;99.90;;;;;;5035515;28;20168;-67
2023/07/08 04:19:22;;;;;;;5.50;3.80;;;19.00;99.90;;;;;;5036642;28;20188;-69
2023/07/08 04:21:48;;;;;;;7.10;4.80;;;19.00;99.90;;;;;;5036267;28;20417;-69
2023/07/08 04:24:15;;;;;;;5.30;4.43;;;19.10;99.90;;;;;;5036688;28;20406;-67
2023/07/08 04:26:42;;;;;;;5.10;3.97;;;19.10;99.90;;;;;;5032444;28;20625;-68
2023/07/08 04:29:11;;;;;;;4.67;3.70;;;19.10;99.90;;;;;;5032495;28;20411;-68
2023/07/08 04:31:36;;;;;;;6.70;4.17;;;19.10;99.90;;;;;;5032451;28;20463;-68
2023/07/08 04:34:02;;;;;;;5.50;4.43;;;19.10;99.90;;;;;;5032408;28;20489;-67
2023/07/08 04:36:28;;;;;;;7.47;4.67;;;19.00;99.90;;;;;;5032203;28;20597;-67
2023/07/08 04:38:53;;;;;;;22.33;12.53;;;19.00;99.90;;;;;;5032253;28;20192;-68
2023/07/08 04:41:19;;;;;;;7.73;4.77;;;19.00;99.90;;;;;;5032303;28;20171;-68
2023/07/08 04:43:44;;;;;;;6.70;5.50;;;19.10;99.90;;;;;;5036013;28;20176;-68
2023/07/08 04:46:21;;;;;;;7.40;4.80;;;19.10;99.90;;;;;;5035797;28;20550;-67
2023/07/08 04:48:47;;;;;;;6.90;3.70;;;19.20;99.90;;;;;;5035886;28;20620;-68
2023/07/08 04:51:13;;;;;;;5.90;4.10;;;19.20;99.90;;;;;;5035399;28;20410;-68
2023/07/08 04:53:39;;;;;;;5.17;3.97;;;19.20;99.90;;;;;;5035116;28;20453;-67
2023/07/08 04:56:04;;;;;;;3.87;3.27;;;19.20;99.90;;;;;;5035258;28;20398;-68
2023/07/08 04:58:30;;;;;;;5.93;3.63;;;19.30;99.90;;;;;;5032820;28;20192;-69
2023/07/08 05:00:55;;;;;;;4.07;3.67;;;19.40;99.90;;;;;;5032042;28;20182;-69
2023/07/08 05:03:21;;;;;;;5.87;4.27;;;19.50;99.90;;;;;;5032056;28;20215;-68
2023/07/08 05:05:46;;;;;;;5.57;3.97;;;19.60;99.90;;;;;;5031818;28;20221;-69
2023/07/08 05:08:12;;;;;;;7.23;4.73;;;19.60;99.90;;;;;;5031811;28;20219;-69
2023/07/08 05:10:39;;;;;;;8.60;4.90;;;19.70;99.90;;;;;;5032026;28;20257;-68
2023/07/08 05:13:05;;;;;;;5.93;3.67;;;19.80;99.90;;;;;;5031866;28;20457;-66
2023/07/08 05:15:30;;;;;;;5.23;3.90;;;19.90;99.90;;;;;;5031596;28;20415;-67
2023/07/08 05:17:56;;;;;;;3.63;3.33;;;20.00;99.90;;;;;;5031866;28;20191;-67
2023/07/08 05:20:22;;;;;;;5.50;3.57;;;20.00;99.90;;;;;;5032850;28;20168;-68
2023/07/08 05:22:48;;;;;;;5.07;3.90;;;20.10;99.90;;;;;;5038204;28;20637;-68
2023/07/08 05:25:14;;;;;;;5.97;3.90;;;20.30;99.90;;;;;;5038540;28;20468;-67
2023/07/08 05:27:40;;;;;;;5.77;4.17;;;20.40;99.90;;;;;;5038776;28;20214;-68
2023/07/08 05:30:07;;;;;;;5.03;4.03;;;20.50;99.90;;;;;;5038478;28;20468;-68
2023/07/08 05:32:33;;;;;;;6.53;4.03;;;20.60;99.90;;;;;;5038579;28;20457;-68
2023/07/08 05:34:58;;;;;;;14.60;3.57;;;20.70;99.90;;;;;;5038062;28;20398;-67
2023/07/08 05:37:25;;;;;;;5.20;3.27;;;20.80;99.90;;;;;;5038632;28;20441;-68
2023/07/08 05:39:55;;;;;;;4.07;3.30;;;20.90;99.90;;;;;;5037972;28;20167;-67
2023/07/08 05:42:21;;;;;;;4.77;3.77;;;21.00;99.90;;;;;;5037699;28;20434;-68
2023/07/08 05:44:46;;;;;;;4.23;3.20;;;21.20;99.90;;;;;;5037391;28;20418;-66
2023/07/08 05:47:13;;;;;;;3.47;3.13;;;21.30;99.90;;;;;;5035224;28;20428;-67
2023/07/08 05:49:38;;;;;;;6.03;3.57;;;21.60;99.90;;;;;;5035426;28;20233;-68
2023/07/08 05:52:10;;;;;;;4.20;3.70;;;21.90;99.90;;;;;;5035265;28;20457;-69
2023/07/08 05:54:39;;;;;;;5.40;3.40;;;22.20;99.90;;;;;;5035498;28;20259;-69
2023/07/08 05:57:06;;;;;;;4.83;3.40;;;22.50;99.90;;;;;;5034980;28;20444;-68
2023/07/08 05:59:32;;;;;;;6.73;4.00;;;22.90;99.90;;;;;;5035990;28;20445;-68
2023/07/08 06:01:57;;;;;;;11.10;4.40;;;23.20;99.90;;;;;;5037732;28;20428;-68
2023/07/08 06:04:23;;;;;;;4.50;4.10;;;23.40;99.40;;;;;;5037647;28;20198;-68
2023/07/08 06:06:48;;;;;;;3.40;3.10;;;23.50;98.50;;;;;;5037813;28;20302;-69
2023/07/08 06:09:14;;;;;;;4.37;3.30;;;23.60;98.40;;;;;;5037582;28;20199;-70
2023/07/08 06:11:40;;;;;;;3.57;3.20;;;23.70;98.00;;;;;;5035004;28;20214;-69
2023/07/08 06:14:05;;;;;;;4.47;4.00;;;24.00;97.60;;;;;;5034989;28;20182;-69
2023/07/08 06:16:31;;;;;;;4.83;3.60;;;24.50;97.10;;;;;;5034717;28;20171;-70
2023/07/08 06:18:57;;;;;;;4.37;3.90;;;25.40;95.20;;;;;;5034837;28;20187;-68
2023/07/08 06:21:23;;;;;;;3.77;3.20;;;26.00;88.30;;;;;;5035035;28;20174;-68
2023/07/08 06:23:49;;;;;;;5.43;4.10;;;26.90;85.60;;;;;;5034870;28;20407;-69
2023/07/08 06:26:14;;;;;;;4.33;3.50;;;27.90;80.60;;;;;;5034585;28;20449;-69
2023/07/08 06:28:40;;;;;;;5.50;3.97;;;29.10;67.70;;;;;;5034714;28;20710;-69
2023/07/08 06:31:05;;;;;;;6.77;3.40;;;29.80;58.10;;;;;;5034791;28;20508;-68
2023/07/08 06:33:31;;;;;;;4.80;3.67;;;30.60;55.10;;;;;;5033863;28;20188;-70
2023/07/08 06:35:56;;;;;;;4.80;3.60;;;31.20;52.80;;;;;;5034378;28;20163;-68
2023/07/08 06:38:22;;;;;;;6.63;4.23;;;31.30;49.00;;;;;;5034597;28;20237;-68
2023/07/08 06:40:47;;;;;;;3.90;3.60;;;32.10;47.20;;;;;;5034539;28;20168;-71
2023/07/08 06:43:13;;;;;;;4.43;3.83;;;32.40;46.30;;;;;;5034445;28;20176;-69
2023/07/08 06:45:40;;;;;;;4.73;4.30;;;32.90;45.70;;;;;;5034228;28;20321;-70
2023/07/08 06:48:05;;;;;;;4.07;3.67;;;32.70;43.70;;;;;;5034326;28;20190;-69
2023/07/08 06:50:31;;;;;;;5.00;4.00;;;31.80;43.20;;;;;;5034380;28;20410;-68
2023/07/08 06:52:57;;;;;;;6.10;4.43;;;31.50;45.30;;;;;;5034289;28;20270;-70
2023/07/08 06:55:24;;;;;;;5.93;3.63;;;30.80;45.50;;;;;;5033959;28;20217;-70
2023/07/08 06:57:49;;;;;;;4.90;3.63;;;30.20;45.70;;;;;;5034405;28;20711;-69
2023/07/08 07:00:15;;;;;;;7.40;4.07;;;30.20;47.40;;;;;;5034189;28;20430;-70
2023/07/08 07:02:41;;;;;;;5.53;4.13;;;30.50;48.10;;;;;;5034134;28;20214;-70
2023/07/08 07:05:07;;;;;;;6.10;3.60;;;30.80;46.60;;;;;;5033893;28;20198;-68
2023/07/08 07:07:34;;;;;;;4.03;3.67;;;30.80;46.20;;;;;;5033773;28;20225;-69
2023/07/08 07:09:59;;;;;;;6.10;4.47;;;31.00;46.20;;;;;;5033957;28;20182;-68
2023/07/08 07:12:25;;;;;;;4.90;3.90;;;30.70;45.80;;;;;;5033798;28;20446;-68
2023/07/08 07:14:52;;;;;;;5.50;4.30;;;30.20;46.70;;;;;;5033829;28;20220;-68
2023/07/08 07:17:20;;;;;;;6.07;4.80;;;30.10;47.20;;;;;;5033474;28;20422;-69
2023/07/08 07:19:45;;;;;;;4.73;4.23;;;30.30;47.80;;;;;;5033744;28;20903;-68
2023/07/08 07:22:11;;;;;;;4.63;4.13;;;30.80;45.10;;;;;;5033739;28;20418;-69
2023/07/08 07:24:36;;;;;;;4.97;4.47;;;31.80;44.10;;;;;;5033706;28;20242;-70
2023/07/08 07:27:02;;;;;;;4.80;4.40;;;32.90;42.00;;;;;;5033365;28;20191;-70
2023/07/08 07:29:28;;;;;;;5.63;5.13;;;34.00;41.70;;;;;;5033594;28;20194;-71
2023/07/08 07:31:54;;;;;;;5.63;5.00;;;35.20;38.90;;;;;;5033464;28;20199;-71
2023/07/08 07:34:20;;;;;;;6.10;4.57;;;35.60;37.50;;;;;;5033550;28;20246;-71
2023/07/08 07:36:45;;;;;;;5.43;4.87;;;36.30;36.30;;;;;;5033264;28;20489;-71
2023/07/08 07:39:11;;;;;;;6.27;5.67;;;36.80;34.80;;;;;;5033428;28;20175;-71
2023/07/08 07:41:37;;;;;;;4.60;4.20;;;37.40;35.20;;;;;;5033414;28;20217;-69
2023/07/08 07:44:02;;;;;;;5.50;5.00;;;38.40;33.00;;;;;;5032975;28;20543;-71
2023/07/08 07:46:28;;;;;;;6.30;5.20;;;39.50;33.10;;;;;;5032372;28;20636;-69
2023/07/08 07:48:53;;;;;;;5.33;4.83;;;39.60;30.20;;;;;;5033192;28;20184;-69
2023/07/08 07:51:19;;;;;;;4.83;4.40;;;39.90;29.90;;;;;;5033160;28;20175;-70
2023/07/08 07:53:44;;;;;;;4.70;4.30;;;40.40;30.00;;;;;;5033136;28;20196;-69
2023/07/08 07:56:10;;;;;;;4.83;4.43;;;41.20;29.60;;;;;;5032665;28;20521;-69
2023/07/08 07:58:35;;;;;;;4.83;4.43;;;41.90;28.50;;;;;;5032953;28;20252;-69
2023/07/08 08:01:01;;;;;;;4.67;4.23;;;41.90;28.20;;;;;;5033042;28;20183;-70
2023/07/08 08:03:27;;;;;;;6.37;5.77;;;43.00;28.50;;;;;;5032971;28;20168;-69
2023/07/08 08:05:52;;;;;;;5.53;4.90;;;44.10;27.70;;;;;;5032499;28;20164;-70
2023/07/08 08:08:19;;;;;;;6.87;5.43;;;45.70;27.60;;;;;;5032692;28;20720;-69
2023/07/08 08:10:45;;;;;;;7.23;5.07;;;46.90;26.70;;;;;;5032925;28;20168;-69
2023/07/08 08:13:11;;;;;;;5.70;5.30;;;47.90;25.60;;;;;;5032730;28;21023;-70
2023/07/08 08:15:37;;;;;;;5.97;5.50;;;48.30;23.30;;;;;;5032909;28;20186;-69
2023/07/08 08:18:03;;;;;;;5.30;4.90;;;47.70;22.80;;;;;;5032591;28;20457;-69
2023/07/08 08:20:29;;;;;;;6.73;5.83;;;47.30;23.00;;;;;;5032650;28;20172;-69
2023/07/08 08:22:55;;;;;;;5.57;5.17;;;47.50;22.70;;;;;;5032634;28;20175;-68
2023/07/08 08:25:23;;;;;;;5.67;5.27;;;46.90;22.90;;;;;;5032223;28;20398;-69
2023/07/08 08:27:49;;;;;;;7.30;6.60;;;46.40;23.40;;;;;;5032435;28;20271;-70
2023/07/08 08:30:14;;;;;;;5.33;4.93;;;46.50;23.00;;;;;;5032572;28;20549;-70
2023/07/08 08:32:40;;;;;;;6.63;5.67;;;47.60;23.40;;;;;;5032368;28;20195;-69
2023/07/08 08:35:06;;;;;;;6.70;6.13;;;48.50;23.20;;;;;;5032180;28;20170;-70
2023/07/08 08:37:31;;;;;;;5.50;5.00;;;48.30;21.70;;;;;;5032215;28;20215;-70
2023/07/08 08:39:57;;;;;;;6.13;5.53;;;48.60;22.00;;;;;;5032342;28;20532;-70
2023/07/08 08:42:34;;;;;;;5.73;5.23;;;47.30;22.20;;;;;;5032237;28;20178;-70
2023/07/08 08:45:02;;;;;;;6.37;5.90;;;48.10;22.50;;;;;;5032127;28;20164;-71
2023/07/08 08:47:36;;;;;;;8.87;8.00;;;48.70;22.20;;;;;;5032103;28;20762;-71
2023/07/08 08:50:30;;;;;;;5.90;5.40;;;49.60;21.50;;;;;;5032261;28;20402;-71
2023/07/08 08:52:58;;;;;;;6.00;5.50;;;50.50;21.60;;;;;;5030835;28;20547;-71
2023/07/08 08:55:24;;;;;;;5.73;5.23;;;51.50;21.10;;;;;;5031738;28;20417;-71
2023/07/08 08:58:11;;;;;;;6.57;6.00;;;51.30;20.70;;;;;;5031873;28;20430;-71
2023/07/08 09:00:57;;;;;;;5.90;5.50;;;50.20;20.30;;;;;;5032169;28;20394;-71
2023/07/08 09:03:50;;;;;;;5.33;4.90;;;50.00;21.00;;;;;;5032014;28;20410;-70
2023/07/08 09:06:28;;;;;;;6.10;5.60;;;49.60;21.00;;;;;;5034013;28;20416;-68
2023/07/08 09:08:56;;;;;;;6.07;5.57;;;50.40;21.30;;;;;;5033105;28;20954;-66
2023/07/08 09:11:48;;;;;;;5.50;5.10;;;49.80;21.00;;;;;;5032299;28;20406;-67
2023/07/08 09:14:23;;;;;;;5.30;4.80;;;49.60;21.20;;;;;;5031264;28;20422;-66
2023/07/08 09:17:04;;;;;;;5.73;4.67;;;49.00;20.80;;;;;;5032691;28;20401;-70
2023/07/08 09:19:39;;;;;;;50.73;16.23;;;48.50;21.10;;;;;;5032025;28;20442;-69
2023/07/08 09:22:07;;;;;;;7.87;5.33;;;47.70;21.20;;;;;;5031914;28;21020;-67
2023/07/08 09:24:58;;;;;;;4.70;4.30;;;47.80;21.40;;;;;;5031794;28;20440;-68
2023/07/08 09:27:23;;;;;;;116.13;36.17;;;47.60;21.60;;;;;;5031818;28;20525;-68
2023/07/08 09:29:49;;;;;;;5.70;5.20;;;47.80;22.30;;;;;;5032108;28;20437;-66
2023/07/08 09:32:19;;;;;;;5.40;4.63;;;47.30;21.20;;;;;;5031932;28;20814;-68
2023/07/08 09:34:49;;;;;;;5.17;4.63;;;47.10;21.30;;;;;;5032029;28;20203;-68
2023/07/08 09:37:25;;;;;;;5.20;4.60;;;47.20;21.90;;;;;;5031626;28;20385;-69
2023/07/08 09:39:52;;;;;;;5.23;4.80;;;46.90;21.50;;;;;;5031766;28;20480;-69
2023/07/08 09:42:18;;;;;;;5.00;4.50;;;46.90;21.70;;;;;;5031812;28;20385;-68
2023/07/08 09:44:45;;;;;;;8.27;5.93;;;47.10;22.50;;;;;;5031810;28;20426;-67
2023/07/08 09:47:30;;;;;;;4.67;4.27;;;47.60;22.20;;;;;;5032060;28;20422;-68
2023/07/08 09:49:57;;;;;;;4.33;4.03;;;48.30;21.60;;;;;;5032749;28;20415;-66
2023/07/08 09:52:23;;;;;;;5.50;4.80;;;49.10;21.80;;;;;;5032787;28;21068;-65
2023/07/08 09:54:49;;;;;;;4.93;4.50;;;49.10;21.10;;;;;;5031364;28;20438;-66
2023/07/08 09:57:31;;;;;;;7.50;4.30;;;49.00;21.40;;;;;;5031200;28;20308;-66
2023/07/08 10:00:02;;;;;;;4.70;4.20;;;49.00;20.90;;;;;;5031576;28;20381;-64
2023/07/08 10:02:39;;;;;;;5.70;4.30;;;49.10;21.30;;;;;;5031686;28;20381;-64
2023/07/08 10:05:22;;;;;;;6.33;4.53;;;49.10;21.80;;;;;;5031314;28;20410;-67
2023/07/08 10:07:51;;;;;;;5.83;4.33;;;49.30;21.00;;;;;;5031505;28;20451;-69
2023/07/08 10:10:23;;;;;;;5.27;4.87;;;49.60;21.00;;;;;;5034830;28;20400;-68
2023/07/08 10:13:04;;;;;;;4.60;4.20;;;50.40;21.20;;;;;;5035003;28;20429;-70
2023/07/08 10:15:44;;;;;;;5.70;5.10;;;51.00;21.10;;;;;;5034952;28;20377;-68
2023/07/08 10:18:27;;;;;;;5.20;4.70;;;51.40;21.30;;;;;;5035173;28;20846;-69
2023/07/08 10:21:26;;;;;;;4.80;4.40;;;51.70;20.00;;;;;;5035324;28;20905;-68
2023/07/08 10:24:17;;;;;;;5.17;4.60;;;51.80;20.90;;;;;;5035309;28;20413;-65
2023/07/08 10:26:49;;;;;;;4.93;4.57;;;52.10;20.20;;;;;;5035625;28;20398;-66
2023/07/08 10:29:53;;;;;;;6.60;6.10;;;52.60;20.70;;;;;;5035637;28;21120;-64
2023/07/08 10:32:44;;;;;;;5.43;4.93;;;53.20;19.70;;;;;;5034675;28;20537;-66
2023/07/08 10:35:18;;;;;;;5.43;4.93;;;54.00;19.90;;;;;;5035695;28;20402;-68
2023/07/08 10:38:08;;;;;;;5.70;5.20;;;54.00;19.50;;;;;;5035178;28;20422;-68
2023/07/08 10:40:49;;;;;;;5.13;4.80;;;53.90;19.20;;;;;;5035311;28;20462;-68
2023/07/08 10:43:36;;;;;;;5.13;4.23;;;54.00;19.20;;;;;;5034709;28;20907;-68
2023/07/08 10:46:20;;;;;;;5.20;4.80;;;53.70;19.10;;;;;;5034339;28;20402;-67
2023/07/08 10:49:15;;;;;;;5.37;4.97;;;53.90;19.00;;;;;;5036196;28;20927;-64
2023/07/08 10:51:50;;;;;;;4.80;4.40;;;53.80;19.20;;;;;;5034761;28;20405;-67
2023/07/08 10:54:26;;;;;;;5.70;5.20;;;54.40;19.60;;;;;;5034174;28;20518;-68
2023/07/08 10:57:19;;;;;;;5.07;4.67;;;54.90;19.40;;;;;;5033930;28;20394;-70
2023/07/08 11:00:16;;;;;;;5.00;4.70;;;54.30;19.20;;;;;;5034268;28;20961;-68
2023/07/08 11:02:59;;;;;;;6.30;5.03;;;54.40;18.80;;;;;;5032359;28;20470;-67
2023/07/08 11:05:40;;;;;;;5.20;4.70;;;54.40;18.70;;;;;;5035202;28;20410;-67
2023/07/08 11:08:26;;;;;;;5.80;5.40;;;54.30;18.80;;;;;;5034079;28;20446;-68
2023/07/08 11:10:54;;;;;;;5.43;5.03;;;54.40;18.90;;;;;;5034059;28;20402;-69
2023/07/08 11:13:23;;;;;;;5.37;4.93;;;54.90;19.40;;;;;;5034033;28;20509;-68
2023/07/08 11:16:04;;;;;;;5.60;5.10;;;55.70;19.30;;;;;;5032709;28;20392;-65
2023/07/08 11:18:46;;;;;;;6.17;5.60;;;56.10;18.50;;;;;;5034671;28;20430;-66
2023/07/08 11:21:20;;;;;;;6.00;5.40;;;55.70;18.50;;;;;;5034685;28;20446;-67
2023/07/08 11:23:51;;;;;;;6.00;5.50;;;55.90;19.00;;;;;;5034252;28;20458;-68
2023/07/08 11:26:27;;;;;;;5.87;5.37;;;56.20;18.50;;;;;;5033504;28;20373;-65
2023/07/08 11:28:56;;;;;;;6.27;5.40;;;56.60;18.70;;;;;;5033477;28;20891;-70
2023/07/08 11:31:23;;;;;;;5.50;5.10;;;57.10;18.20;;;;;;5033548;28;20451;-69
2023/07/08 11:33:50;;;;;;;5.30;4.90;;;57.00;17.60;;;;;;5033527;28;20406;-69
2023/07/08 11:36:16;;;;;;;6.80;6.20;;;56.10;17.40;;;;;;5033224;28;21022;-69
2023/07/08 11:38:53;;;;;;;5.57;5.07;;;56.40;17.90;;;;;;5033421;28;20441;-69
2023/07/08 11:41:21;;;;;;;5.80;5.30;;;57.20;18.30;;;;;;5033471;28;20393;-70
2023/07/08 11:44:11;;;;;;;6.27;5.80;;;57.80;18.00;;;;;;5033261;28;20494;-70
2023/07/08 11:46:54;;;;;;;5.80;5.30;;;58.10;17.40;;;;;;5032656;28;20938;-70
2023/07/08 11:49:19;;;;;;;18.07;6.50;;;58.00;17.50;;;;;;5033276;28;20406;-70
2023/07/08 11:51:47;;;;;;;5.43;4.80;;;57.30;16.90;;;;;;5033162;28;20424;-67
2023/07/08 11:54:14;;;;;;;6.23;5.73;;;57.10;17.70;;;;;;5033311;28;20166;-65
2023/07/08 11:57:03;;;;;;;7.10;6.60;;;57.10;17.40;;;;;;5033574;28;20532;-64
2023/07/08 11:59:40;;;;;;;5.40;5.03;;;57.50;17.80;;;;;;5033802;28;20749;-66
2023/07/08 12:02:15;;;;;;;5.80;5.30;;;57.00;16.50;;;;;;5033462;28;20910;-66
2023/07/08 12:04:59;;;;;;;5.70;5.30;;;56.50;17.10;;;;;;5032938;28;20440;-71
2023/07/08 12:07:55;;;;;;;5.90;5.30;;;56.10;17.70;;;;;;5032791;28;20437;-69
2023/07/08 12:10:49;;;;;;;5.37;4.97;;;55.40;17.60;;;;;;5032196;28;20406;-68
2023/07/08 12:13:18;;;;;;;5.17;4.87;;;55.20;17.60;;;;;;5032332;28;20414;-64
2023/07/08 12:15:44;;;;;;;5.50;5.00;;;55.30;17.60;;;;;;5033358;28;20830;-69
2023/07/08 12:18:24;;;;;;;7.67;5.13;;;55.30;17.30;;;;;;5032806;28;20422;-68
2023/07/08 12:20:56;;;;;;;5.47;4.97;;;55.20;17.90;;;;;;5032686;28;20394;-67
2023/07/08 12:23:24;;;;;;;4.90;4.50;;;55.40;18.10;;;;;;5032626;28;20446;-69
2023/07/08 12:25:51;;;;;;;5.20;4.80;;;55.80;17.80;;;;;;5032257;28;20408;-66
2023/07/08 12:28:16;;;;;;;5.20;4.80;;;56.20;17.60;;;;;;5032497;28;20880;-69
2023/07/08 12:30:44;;;;;;;6.00;5.40;;;56.60;17.80;;;;;;5031735;28;20434;-70
2023/07/08 12:33:39;;;;;;;5.27;4.87;;;57.20;17.40;;;;;;5032492;28;20909;-70
2023/07/08 12:36:05;;;;;;;5.13;4.83;;;57.60;17.30;;;;;;5027664;28;20425;-70
2023/07/08 12:38:35;;;;;;;5.60;5.20;;;57.60;16.90;;;;;;5032305;28;20479;-70
2023/07/08 12:41:08;;;;;;;5.20;4.80;;;56.60;16.70;;;;;;5032365;28;20175;-70
2023/07/08 12:43:33;;;;;;;5.33;4.83;;;56.10;17.50;;;;;;5032377;28;20454;-67
2023/07/08 12:45:59;;;;;;;5.30;4.90;;;54.60;16.50;;;;;;5030841;28;20943;-70
2023/07/08 12:48:25;;;;;;;6.17;5.70;;;54.30;17.60;;;;;;5032121;28;20254;-70
2023/07/08 12:50:50;;;;;;;7.17;5.57;;;54.20;17.40;;;;;;5032087;28;20172;-70
2023/07/08 12:53:16;;;;;;;6.17;5.57;;;53.80;18.20;;;;;;5032183;28;20167;-70
2023/07/08 12:55:44;;;;;;;4.87;4.33;;;53.70;17.60;;;;;;5031973;28;20195;-70
2023/07/08 12:58:19;;;;;;;5.37;4.97;;;53.60;17.40;;;;;;5032098;28;20187;-69